sensor_id;sensor_type;location;lat;lon;timestamp;P1;durP1;ratioP1;P2;durP2;ratioP2
6306;SDS011;3186;54.062;9.962;2023-07-13T00:00:19;5.90;;;2.03;;
6306;SDS011;3186;54.062;9.962;2023-07-13T00:02:45;4.63;;;1.93;;
6306;SDS011;3186;54.062;9.962;2023-07-13T00:05:11;7.67;;;2.10;;
6306;SDS011;3186;54.062;9.962;2023-07-13T00:07:37;4.73;;;2.70;;
6306;SDS011;3186;54.062;9.962;2023-07-13T00:10:03;5.93;;;2.17;;
6306;SDS011;3186;54.062;9.962;2023-07-13T00:12:31;5.87;;;2.40;;
6306;SDS011;3186;54.062;9.962;2023-07-13T00:15:00;5.27;;;2.30;;
6306;SDS011;3186;54.062;9.962;2023-07-13T00:17:28;4.57;;;2.00;;
6306;SDS011;3186;54.062;9.962;2023-07-13T00:19:55;6.80;;;2.20;;
6306;SDS011;3186;54.062;9.962;2023-07-13T00:22:22;5.67;;;2.13;;
6306;SDS011;3186;54.062;9.962;2023-07-13T00:24:51;3.40;;;1.63;;
6306;SDS011;3186;54.062;9.962;2023-07-13T00:27:17;3.90;;;1.70;;
6306;SDS011;3186;54.062;9.962;2023-07-13T00:29:43;7.57;;;2.17;;
6306;SDS011;3186;54.062;9.962;2023-07-13T00:32:10;3.00;;;1.90;;
6306;SDS011;3186;54.062;9.962;2023-07-13T00:34:37;4.70;;;1.87;;
6306;SDS011;3186;54.062;9.962;2023-07-13T00:37:03;5.30;;;2.30;;
6306;SDS011;3186;54.062;9.962;2023-07-13T00:39:32;5.30;;;1.67;;
6306;SDS011;3186;54.062;9.962;2023-07-13T00:41:59;2.37;;;1.87;;
6306;SDS011;3186;54.062;9.962;2023-07-13T00:44:25;3.40;;;2.10;;
6306;SDS011;3186;54.062;9.962;2023-07-13T00:46:53;5.37;;;2.07;;
6306;SDS011;3186;54.062;9.962;2023-07-13T00:49:22;4.67;;;2.30;;
6306;SDS011;3186;54.062;9.962;2023-07-13T00:51:54;5.47;;;2.23;;
6306;SDS011;3186;54.062;9.962;2023-07-13T00:54:28;4.57;;;1.87;;
6306;SDS011;3186;54.062;9.962;2023-07-13T00:56:59;5.03;;;1.83;;
6306;SDS011;3186;54.062;9.962;2023-07-13T00:59:28;6.60;;;2.40;;
6306;SDS011;3186;54.062;9.962;2023-07-13T01:01:55;2.97;;;2.27;;
6306;SDS011;3186;54.062;9.962;2023-07-13T01:04:23;5.53;;;2.13;;
6306;SDS011;3186;54.062;9.962;2023-07-13T01:06:50;4.27;;;1.87;;
6306;SDS011;3186;54.062;9.962;2023-07-13T01:09:16;4.13;;;2.10;;
6306;SDS011;3186;54.062;9.962;2023-07-13T01:11:43;4.10;;;2.13;;
6306;SDS011;3186;54.062;9.962;2023-07-13T01:14:10;5.80;;;1.90;;
6306;SDS011;3186;54.062;9.962;2023-07-13T01:16:36;3.77;;;2.03;;
6306;SDS011;3186;54.062;9.962;2023-07-13T01:19:06;2.30;;;1.80;;
6306;SDS011;3186;54.062;9.962;2023-07-13T01:22:08;3.03;;;1.80;;
6306;SDS011;3186;54.062;9.962;2023-07-13T01:24:40;3.50;;;1.87;;
6306;SDS011;3186;54.062;9.962;2023-07-13T01:27:08;5.70;;;2.10;;
6306;SDS011;3186;54.062;9.962;2023-07-13T01:29:39;6.53;;;2.30;;
6306;SDS011;3186;54.062;9.962;2023-07-13T01:32:14;3.47;;;2.33;;
6306;SDS011;3186;54.062;9.962;2023-07-13T01:34:45;2.13;;;1.90;;
6306;SDS011;3186;54.062;9.962;2023-07-13T01:37:12;2.27;;;2.00;;
6306;SDS011;3186;54.062;9.962;2023-07-13T01:39:38;8.60;;;1.87;;
6306;SDS011;3186;54.062;9.962;2023-07-13T01:42:04;4.13;;;2.20;;
6306;SDS011;3186;54.062;9.962;2023-07-13T01:44:30;5.73;;;2.27;;
6306;SDS011;3186;54.062;9.962;2023-07-13T01:46:56;4.13;;;2.33;;
6306;SDS011;3186;54.062;9.962;2023-07-13T01:49:23;3.53;;;1.97;;
6306;SDS011;3186;54.062;9.962;2023-07-13T01:51:49;4.27;;;2.20;;
6306;SDS011;3186;54.062;9.962;2023-07-13T01:54:15;3.83;;;2.10;;
6306;SDS011;3186;54.062;9.962;2023-07-13T01:56:42;7.03;;;2.37;;
6306;SDS011;3186;54.062;9.962;2023-07-13T01:59:08;3.23;;;2.23;;
6306;SDS011;3186;54.062;9.962;2023-07-13T02:01:34;4.37;;;2.00;;
6306;SDS011;3186;54.062;9.962;2023-07-13T02:04:00;3.17;;;2.03;;
6306;SDS011;3186;54.062;9.962;2023-07-13T02:06:29;6.30;;;2.10;;
6306;SDS011;3186;54.062;9.962;2023-07-13T02:08:55;4.00;;;1.80;;
6306;SDS011;3186;54.062;9.962;2023-07-13T02:11:21;4.07;;;2.07;;
6306;SDS011;3186;54.062;9.962;2023-07-13T02:13:47;3.07;;;2.20;;
6306;SDS011;3186;54.062;9.962;2023-07-13T02:16:13;6.00;;;2.57;;
6306;SDS011;3186;54.062;9.962;2023-07-13T02:18:40;7.40;;;2.30;;
6306;SDS011;3186;54.062;9.962;2023-07-13T02:21:05;6.00;;;2.13;;
6306;SDS011;3186;54.062;9.962;2023-07-13T02:23:32;3.60;;;2.20;;
6306;SDS011;3186;54.062;9.962;2023-07-13T02:25:58;4.17;;;2.07;;
6306;SDS011;3186;54.062;9.962;2023-07-13T02:28:27;3.43;;;1.97;;
6306;SDS011;3186;54.062;9.962;2023-07-13T02:30:52;3.70;;;2.30;;
6306;SDS011;3186;54.062;9.962;2023-07-13T02:35:47;5.30;;;2.30;;
6306;SDS011;3186;54.062;9.962;2023-07-13T02:38:13;6.70;;;2.20;;
6306;SDS011;3186;54.062;9.962;2023-07-13T02:40:39;5.43;;;2.10;;
6306;SDS011;3186;54.062;9.962;2023-07-13T02:43:04;5.67;;;2.43;;
6306;SDS011;3186;54.062;9.962;2023-07-13T02:45:30;5.77;;;2.20;;
6306;SDS011;3186;54.062;9.962;2023-07-13T02:47:56;2.83;;;2.00;;
6306;SDS011;3186;54.062;9.962;2023-07-13T02:50:22;6.77;;;2.00;;
6306;SDS011;3186;54.062;9.962;2023-07-13T02:52:47;6.50;;;2.33;;
6306;SDS011;3186;54.062;9.962;2023-07-13T02:55:13;4.23;;;2.17;;
6306;SDS011;3186;54.062;9.962;2023-07-13T02:57:40;2.87;;;2.20;;
6306;SDS011;3186;54.062;9.962;2023-07-13T03:00:06;5.47;;;2.60;;
6306;SDS011;3186;54.062;9.962;2023-07-13T03:02:33;3.97;;;2.60;;
6306;SDS011;3186;54.062;9.962;2023-07-13T03:05:00;4.80;;;2.27;;
6306;SDS011;3186;54.062;9.962;2023-07-13T03:07:26;5.30;;;2.20;;
6306;SDS011;3186;54.062;9.962;2023-07-13T03:09:56;5.50;;;2.33;;
6306;SDS011;3186;54.062;9.962;2023-07-13T03:12:24;6.00;;;3.07;;
6306;SDS011;3186;54.062;9.962;2023-07-13T03:14:51;7.40;;;2.47;;
6306;SDS011;3186;54.062;9.962;2023-07-13T03:17:17;5.73;;;2.70;;
6306;SDS011;3186;54.062;9.962;2023-07-13T03:19:43;7.00;;;2.40;;
6306;SDS011;3186;54.062;9.962;2023-07-13T03:22:10;5.00;;;2.60;;
6306;SDS011;3186;54.062;9.962;2023-07-13T03:24:37;4.37;;;2.53;;
6306;SDS011;3186;54.062;9.962;2023-07-13T03:27:04;7.10;;;2.57;;
6306;SDS011;3186;54.062;9.962;2023-07-13T03:29:32;7.33;;;2.50;;
6306;SDS011;3186;54.062;9.962;2023-07-13T03:31:58;6.43;;;2.47;;
6306;SDS011;3186;54.062;9.962;2023-07-13T03:34:23;3.97;;;2.13;;
6306;SDS011;3186;54.062;9.962;2023-07-13T03:36:50;4.80;;;2.60;;
6306;SDS011;3186;54.062;9.962;2023-07-13T03:39:15;8.13;;;2.50;;
6306;SDS011;3186;54.062;9.962;2023-07-13T03:41:47;7.40;;;3.17;;
6306;SDS011;3186;54.062;9.962;2023-07-13T03:44:15;6.37;;;3.10;;
6306;SDS011;3186;54.062;9.962;2023-07-13T03:46:41;3.33;;;2.30;;
6306;SDS011;3186;54.062;9.962;2023-07-13T03:49:07;4.87;;;2.73;;
6306;SDS011;3186;54.062;9.962;2023-07-13T03:51:34;5.43;;;2.50;;
6306;SDS011;3186;54.062;9.962;2023-07-13T03:53:59;6.00;;;3.00;;
6306;SDS011;3186;54.062;9.962;2023-07-13T03:56:25;5.83;;;2.97;;
6306;SDS011;3186;54.062;9.962;2023-07-13T03:58:52;7.50;;;3.03;;
6306;SDS011;3186;54.062;9.962;2023-07-13T04:01:20;4.80;;;2.47;;
6306;SDS011;3186;54.062;9.962;2023-07-13T04:03:47;5.03;;;2.60;;
6306;SDS011;3186;54.062;9.962;2023-07-13T04:06:18;3.40;;;2.50;;
6306;SDS011;3186;54.062;9.962;2023-07-13T04:08:50;5.17;;;2.80;;
6306;SDS011;3186;54.062;9.962;2023-07-13T04:11:18;4.60;;;3.20;;
6306;SDS011;3186;54.062;9.962;2023-07-13T04:13:45;3.67;;;2.50;;
6306;SDS011;3186;54.062;9.962;2023-07-13T04:16:12;4.73;;;2.63;;
6306;SDS011;3186;54.062;9.962;2023-07-13T04:18:38;5.13;;;2.83;;
6306;SDS011;3186;54.062;9.962;2023-07-13T04:21:04;7.87;;;2.63;;
6306;SDS011;3186;54.062;9.962;2023-07-13T04:23:30;2.57;;;2.20;;
6306;SDS011;3186;54.062;9.962;2023-07-13T04:25:56;7.30;;;3.20;;
6306;SDS011;3186;54.062;9.962;2023-07-13T04:28:22;6.97;;;3.00;;
6306;SDS011;3186;54.062;9.962;2023-07-13T04:30:49;6.00;;;3.50;;
6306;SDS011;3186;54.062;9.962;2023-07-13T04:33:15;6.23;;;2.80;;
6306;SDS011;3186;54.062;9.962;2023-07-13T04:35:42;5.07;;;2.70;;
6306;SDS011;3186;54.062;9.962;2023-07-13T04:38:09;4.93;;;2.90;;
6306;SDS011;3186;54.062;9.962;2023-07-13T04:40:36;4.70;;;2.80;;
6306;SDS011;3186;54.062;9.962;2023-07-13T04:43:02;5.53;;;2.90;;
6306;SDS011;3186;54.062;9.962;2023-07-13T04:45:28;3.77;;;3.10;;
6306;SDS011;3186;54.062;9.962;2023-07-13T04:47:54;5.57;;;2.40;;
6306;SDS011;3186;54.062;9.962;2023-07-13T04:50:19;7.00;;;3.47;;
6306;SDS011;3186;54.062;9.962;2023-07-13T04:52:51;3.63;;;2.80;;
6306;SDS011;3186;54.062;9.962;2023-07-13T04:55:17;6.80;;;4.10;;
6306;SDS011;3186;54.062;9.962;2023-07-13T04:57:44;4.40;;;2.70;;
6306;SDS011;3186;54.062;9.962;2023-07-13T05:00:10;8.07;;;3.43;;
6306;SDS011;3186;54.062;9.962;2023-07-13T05:02:37;5.60;;;2.77;;
6306;SDS011;3186;54.062;9.962;2023-07-13T05:05:03;3.93;;;2.27;;
6306;SDS011;3186;54.062;9.962;2023-07-13T05:07:30;7.90;;;4.10;;
6306;SDS011;3186;54.062;9.962;2023-07-13T05:09:57;6.10;;;3.43;;
6306;SDS011;3186;54.062;9.962;2023-07-13T05:12:24;4.70;;;3.43;;
6306;SDS011;3186;54.062;9.962;2023-07-13T05:14:50;4.90;;;3.33;;
6306;SDS011;3186;54.062;9.962;2023-07-13T05:17:16;8.93;;;3.33;;
6306;SDS011;3186;54.062;9.962;2023-07-13T05:19:42;5.47;;;2.90;;
6306;SDS011;3186;54.062;9.962;2023-07-13T05:22:08;14.37;;;4.10;;
6306;SDS011;3186;54.062;9.962;2023-07-13T05:24:33;6.27;;;3.60;;
6306;SDS011;3186;54.062;9.962;2023-07-13T05:26:59;5.80;;;3.33;;
6306;SDS011;3186;54.062;9.962;2023-07-13T05:29:25;6.97;;;3.77;;
6306;SDS011;3186;54.062;9.962;2023-07-13T05:31:51;4.73;;;2.90;;
6306;SDS011;3186;54.062;9.962;2023-07-13T05:34:17;4.93;;;3.23;;
6306;SDS011;3186;54.062;9.962;2023-07-13T05:36:42;5.97;;;3.20;;
6306;SDS011;3186;54.062;9.962;2023-07-13T05:39:08;7.70;;;3.60;;
6306;SDS011;3186;54.062;9.962;2023-07-13T05:41:35;6.23;;;3.17;;
6306;SDS011;3186;54.062;9.962;2023-07-13T05:44:01;3.20;;;2.80;;
6306;SDS011;3186;54.062;9.962;2023-07-13T05:46:26;4.43;;;2.93;;
6306;SDS011;3186;54.062;9.962;2023-07-13T05:48:52;9.63;;;3.57;;
6306;SDS011;3186;54.062;9.962;2023-07-13T05:51:18;10.07;;;3.20;;
6306;SDS011;3186;54.062;9.962;2023-07-13T05:53:44;5.10;;;2.70;;
6306;SDS011;3186;54.062;9.962;2023-07-13T05:56:09;6.93;;;3.50;;
6306;SDS011;3186;54.062;9.962;2023-07-13T05:58:35;9.53;;;3.27;;
6306;SDS011;3186;54.062;9.962;2023-07-13T06:01:05;8.93;;;3.47;;
6306;SDS011;3186;54.062;9.962;2023-07-13T06:03:33;10.70;;;3.00;;
6306;SDS011;3186;54.062;9.962;2023-07-13T06:05:59;3.60;;;2.33;;
6306;SDS011;3186;54.062;9.962;2023-07-13T06:08:26;4.63;;;2.50;;
6306;SDS011;3186;54.062;9.962;2023-07-13T06:10:52;6.03;;;2.97;;
6306;SDS011;3186;54.062;9.962;2023-07-13T06:13:18;7.30;;;2.67;;
6306;SDS011;3186;54.062;9.962;2023-07-13T06:15:48;10.93;;;3.50;;
6306;SDS011;3186;54.062;9.962;2023-07-13T06:18:16;5.93;;;3.13;;
6306;SDS011;3186;54.062;9.962;2023-07-13T06:20:42;11.83;;;3.43;;
6306;SDS011;3186;54.062;9.962;2023-07-13T06:23:08;8.17;;;2.60;;
6306;SDS011;3186;54.062;9.962;2023-07-13T06:25:33;6.93;;;3.30;;
6306;SDS011;3186;54.062;9.962;2023-07-13T06:27:59;7.80;;;3.27;;
6306;SDS011;3186;54.062;9.962;2023-07-13T06:30:25;10.30;;;3.50;;
6306;SDS011;3186;54.062;9.962;2023-07-13T06:32:52;8.27;;;3.63;;
6306;SDS011;3186;54.062;9.962;2023-07-13T06:35:18;12.27;;;3.23;;
6306;SDS011;3186;54.062;9.962;2023-07-13T06:37:43;8.63;;;3.30;;
6306;SDS011;3186;54.062;9.962;2023-07-13T06:40:09;13.13;;;4.07;;
6306;SDS011;3186;54.062;9.962;2023-07-13T06:42:35;8.87;;;3.37;;
6306;SDS011;3186;54.062;9.962;2023-07-13T06:45:01;9.07;;;3.27;;
6306;SDS011;3186;54.062;9.962;2023-07-13T06:47:27;8.17;;;3.43;;
6306;SDS011;3186;54.062;9.962;2023-07-13T06:49:53;14.87;;;3.60;;
6306;SDS011;3186;54.062;9.962;2023-07-13T06:52:19;9.80;;;3.43;;
6306;SDS011;3186;54.062;9.962;2023-07-13T06:54:45;9.07;;;3.57;;
6306;SDS011;3186;54.062;9.962;2023-07-13T06:57:10;6.37;;;3.10;;
6306;SDS011;3186;54.062;9.962;2023-07-13T06:59:36;7.97;;;3.20;;
6306;SDS011;3186;54.062;9.962;2023-07-13T07:02:02;7.43;;;3.43;;
6306;SDS011;3186;54.062;9.962;2023-07-13T07:04:28;7.70;;;2.87;;
6306;SDS011;3186;54.062;9.962;2023-07-13T07:06:53;7.80;;;3.07;;
6306;SDS011;3186;54.062;9.962;2023-07-13T07:09:19;9.73;;;2.93;;
6306;SDS011;3186;54.062;9.962;2023-07-13T07:11:45;5.37;;;3.23;;
6306;SDS011;3186;54.062;9.962;2023-07-13T07:14:10;11.03;;;3.20;;
6306;SDS011;3186;54.062;9.962;2023-07-13T07:16:36;6.27;;;2.77;;
6306;SDS011;3186;54.062;9.962;2023-07-13T07:19:02;10.00;;;3.07;;
6306;SDS011;3186;54.062;9.962;2023-07-13T07:21:27;8.70;;;2.90;;
6306;SDS011;3186;54.062;9.962;2023-07-13T07:23:53;4.97;;;2.33;;
6306;SDS011;3186;54.062;9.962;2023-07-13T07:26:19;7.73;;;2.83;;
6306;SDS011;3186;54.062;9.962;2023-07-13T07:28:44;10.57;;;2.87;;
6306;SDS011;3186;54.062;9.962;2023-07-13T07:31:10;5.57;;;2.27;;
6306;SDS011;3186;54.062;9.962;2023-07-13T07:33:36;7.90;;;2.77;;
6306;SDS011;3186;54.062;9.962;2023-07-13T07:36:02;5.83;;;2.67;;
6306;SDS011;3186;54.062;9.962;2023-07-13T07:38:29;6.20;;;2.80;;
6306;SDS011;3186;54.062;9.962;2023-07-13T07:40:55;5.73;;;2.70;;
6306;SDS011;3186;54.062;9.962;2023-07-13T07:43:21;6.60;;;2.53;;
6306;SDS011;3186;54.062;9.962;2023-07-13T07:45:46;6.97;;;2.47;;
6306;SDS011;3186;54.062;9.962;2023-07-13T07:48:12;9.90;;;2.70;;
6306;SDS011;3186;54.062;9.962;2023-07-13T07:50:38;6.27;;;2.83;;
6306;SDS011;3186;54.062;9.962;2023-07-13T07:53:04;4.60;;;2.60;;
6306;SDS011;3186;54.062;9.962;2023-07-13T07:55:32;8.90;;;2.77;;
6306;SDS011;3186;54.062;9.962;2023-07-13T07:58:00;8.27;;;2.77;;
6306;SDS011;3186;54.062;9.962;2023-07-13T08:00:26;9.97;;;2.63;;
6306;SDS011;3186;54.062;9.962;2023-07-13T08:02:53;4.67;;;2.33;;
6306;SDS011;3186;54.062;9.962;2023-07-13T08:05:18;4.40;;;2.53;;
6306;SDS011;3186;54.062;9.962;2023-07-13T08:07:44;5.83;;;2.03;;
6306;SDS011;3186;54.062;9.962;2023-07-13T08:10:10;4.70;;;2.10;;
6306;SDS011;3186;54.062;9.962;2023-07-13T08:12:39;6.30;;;2.37;;
6306;SDS011;3186;54.062;9.962;2023-07-13T08:15:08;3.97;;;2.13;;
6306;SDS011;3186;54.062;9.962;2023-07-13T08:17:35;8.27;;;2.40;;
6306;SDS011;3186;54.062;9.962;2023-07-13T08:20:01;6.77;;;2.30;;
6306;SDS011;3186;54.062;9.962;2023-07-13T08:22:27;3.77;;;2.27;;
6306;SDS011;3186;54.062;9.962;2023-07-13T08:24:53;4.90;;;2.03;;
6306;SDS011;3186;54.062;9.962;2023-07-13T08:27:22;5.63;;;2.30;;
6306;SDS011;3186;54.062;9.962;2023-07-13T08:29:49;6.43;;;1.97;;
6306;SDS011;3186;54.062;9.962;2023-07-13T08:32:15;3.63;;;1.77;;
6306;SDS011;3186;54.062;9.962;2023-07-13T08:34:43;3.03;;;2.07;;
6306;SDS011;3186;54.062;9.962;2023-07-13T08:37:09;6.77;;;2.10;;
6306;SDS011;3186;54.062;9.962;2023-07-13T08:39:35;6.33;;;2.10;;
6306;SDS011;3186;54.062;9.962;2023-07-13T08:42:05;4.90;;;2.00;;
6306;SDS011;3186;54.062;9.962;2023-07-13T08:47:22;6.53;;;2.10;;
6306;SDS011;3186;54.062;9.962;2023-07-13T08:49:49;4.13;;;2.03;;
6306;SDS011;3186;54.062;9.962;2023-07-13T08:52:32;2.87;;;2.10;;
6306;SDS011;3186;54.062;9.962;2023-07-13T08:55:14;2.67;;;1.60;;
6306;SDS011;3186;54.062;9.962;2023-07-13T08:57:43;7.33;;;2.00;;
6306;SDS011;3186;54.062;9.962;2023-07-13T09:00:11;4.07;;;2.10;;
6306;SDS011;3186;54.062;9.962;2023-07-13T09:02:46;4.00;;;2.17;;
6306;SDS011;3186;54.062;9.962;2023-07-13T09:16:22;7.23;;;2.30;;
6306;SDS011;3186;54.062;9.962;2023-07-13T09:18:49;6.90;;;2.10;;
6306;SDS011;3186;54.062;9.962;2023-07-13T09:21:22;4.87;;;2.27;;
6306;SDS011;3186;54.062;9.962;2023-07-13T09:23:56;9.27;;;2.83;;
6306;SDS011;3186;54.062;9.962;2023-07-13T09:26:26;5.67;;;2.60;;
6306;SDS011;3186;54.062;9.962;2023-07-13T09:29:16;6.53;;;2.60;;
6306;SDS011;3186;54.062;9.962;2023-07-13T09:31:52;11.97;;;2.87;;
6306;SDS011;3186;54.062;9.962;2023-07-13T09:34:23;8.53;;;3.00;;
6306;SDS011;3186;54.062;9.962;2023-07-13T09:36:50;7.13;;;2.43;;
6306;SDS011;3186;54.062;9.962;2023-07-13T09:44:36;4.80;;;2.13;;
6306;SDS011;3186;54.062;9.962;2023-07-13T09:47:03;4.73;;;2.30;;
6306;SDS011;3186;54.062;9.962;2023-07-13T09:49:42;9.07;;;2.43;;
6306;SDS011;3186;54.062;9.962;2023-07-13T09:52:13;3.97;;;2.40;;
6306;SDS011;3186;54.062;9.962;2023-07-13T09:54:44;6.40;;;2.50;;
6306;SDS011;3186;54.062;9.962;2023-07-13T09:57:14;5.63;;;2.00;;
6306;SDS011;3186;54.062;9.962;2023-07-13T09:59:48;6.13;;;2.40;;
6306;SDS011;3186;54.062;9.962;2023-07-13T10:02:26;5.87;;;2.07;;
6306;SDS011;3186;54.062;9.962;2023-07-13T10:04:56;3.13;;;1.90;;
6306;SDS011;3186;54.062;9.962;2023-07-13T10:07:28;3.77;;;2.00;;
6306;SDS011;3186;54.062;9.962;2023-07-13T10:09:59;10.63;;;2.10;;
6306;SDS011;3186;54.062;9.962;2023-07-13T10:12:26;3.27;;;2.00;;
6306;SDS011;3186;54.062;9.962;2023-07-13T10:14:55;3.73;;;2.00;;
6306;SDS011;3186;54.062;9.962;2023-07-13T10:17:32;4.93;;;1.83;;
6306;SDS011;3186;54.062;9.962;2023-07-13T10:20:03;3.20;;;1.90;;
6306;SDS011;3186;54.062;9.962;2023-07-13T10:25:28;4.13;;;1.83;;
6306;SDS011;3186;54.062;9.962;2023-07-13T10:28:03;4.67;;;1.90;;
6306;SDS011;3186;54.062;9.962;2023-07-13T10:30:38;3.47;;;1.90;;
6306;SDS011;3186;54.062;9.962;2023-07-13T10:33:10;5.13;;;1.43;;
6306;SDS011;3186;54.062;9.962;2023-07-13T10:35:38;3.10;;;1.60;;
6306;SDS011;3186;54.062;9.962;2023-07-13T10:38:10;3.53;;;1.50;;
6306;SDS011;3186;54.062;9.962;2023-07-13T10:40:40;6.20;;;1.00;;
6306;SDS011;3186;54.062;9.962;2023-07-13T10:43:15;1.90;;;1.40;;
6306;SDS011;3186;54.062;9.962;2023-07-13T10:45:50;2.20;;;1.10;;
6306;SDS011;3186;54.062;9.962;2023-07-13T10:48:16;1.53;;;0.97;;
6306;SDS011;3186;54.062;9.962;2023-07-13T10:50:44;1.50;;;0.97;;
6306;SDS011;3186;54.062;9.962;2023-07-13T10:53:17;2.40;;;1.00;;
6306;SDS011;3186;54.062;9.962;2023-07-13T11:03:32;0.77;;;0.77;;
6306;SDS011;3186;54.062;9.962;2023-07-13T11:06:11;1.27;;;0.73;;
6306;SDS011;3186;54.062;9.962;2023-07-13T11:13:58;1.43;;;1.17;;
6306;SDS011;3186;54.062;9.962;2023-07-13T11:16:36;2.37;;;1.20;;
6306;SDS011;3186;54.062;9.962;2023-07-13T11:22:01;1.93;;;1.23;;
6306;SDS011;3186;54.062;9.962;2023-07-13T11:27:33;1.53;;;1.00;;
6306;SDS011;3186;54.062;9.962;2023-07-13T11:33:16;3.23;;;1.27;;
6306;SDS011;3186;54.062;9.962;2023-07-13T11:38:17;2.63;;;1.20;;
6306;SDS011;3186;54.062;9.962;2023-07-13T11:40:46;2.17;;;1.30;;
6306;SDS011;3186;54.062;9.962;2023-07-13T11:43:14;1.93;;;1.17;;
6306;SDS011;3186;54.062;9.962;2023-07-13T11:45:42;6.73;;;1.53;;
6306;SDS011;3186;54.062;9.962;2023-07-13T11:48:18;3.63;;;1.80;;
6306;SDS011;3186;54.062;9.962;2023-07-13T11:51:00;2.63;;;1.50;;
6306;SDS011;3186;54.062;9.962;2023-07-13T11:53:31;3.27;;;1.33;;
6306;SDS011;3186;54.062;9.962;2023-07-13T11:56:05;3.43;;;1.37;;
6306;SDS011;3186;54.062;9.962;2023-07-13T11:58:32;5.30;;;1.30;;
6306;SDS011;3186;54.062;9.962;2023-07-13T12:00:59;2.43;;;1.20;;
6306;SDS011;3186;54.062;9.962;2023-07-13T12:03:27;2.83;;;1.10;;
6306;SDS011;3186;54.062;9.962;2023-07-13T12:08:24;2.17;;;1.10;;
6306;SDS011;3186;54.062;9.962;2023-07-13T12:11:00;3.13;;;1.57;;
6306;SDS011;3186;54.062;9.962;2023-07-13T12:13:40;4.80;;;1.40;;
6306;SDS011;3186;54.062;9.962;2023-07-13T12:18:55;7.57;;;1.30;;
6306;SDS011;3186;54.062;9.962;2023-07-13T12:21:23;2.87;;;1.20;;
6306;SDS011;3186;54.062;9.962;2023-07-13T12:24:00;4.27;;;1.40;;
6306;SDS011;3186;54.062;9.962;2023-07-13T12:26:29;2.07;;;1.20;;
6306;SDS011;3186;54.062;9.962;2023-07-13T12:28:56;2.37;;;1.30;;
6306;SDS011;3186;54.062;9.962;2023-07-13T12:31:26;1.70;;;1.07;;
6306;SDS011;3186;54.062;9.962;2023-07-13T12:34:07;2.63;;;1.17;;
6306;SDS011;3186;54.062;9.962;2023-07-13T12:39:25;2.50;;;1.10;;
6306;SDS011;3186;54.062;9.962;2023-07-13T12:44:56;3.13;;;1.27;;
6306;SDS011;3186;54.062;9.962;2023-07-13T12:48:03;1.63;;;1.00;;
6306;SDS011;3186;54.062;9.962;2023-07-13T12:50:34;2.57;;;1.20;;
6306;SDS011;3186;54.062;9.962;2023-07-13T12:53:05;2.13;;;1.13;;
6306;SDS011;3186;54.062;9.962;2023-07-13T12:55:53;2.67;;;1.20;;
6306;SDS011;3186;54.062;9.962;2023-07-13T12:58:28;2.73;;;1.50;;
6306;SDS011;3186;54.062;9.962;2023-07-13T13:00:58;3.50;;;1.40;;
6306;SDS011;3186;54.062;9.962;2023-07-13T13:03:30;5.63;;;1.37;;
6306;SDS011;3186;54.062;9.962;2023-07-13T13:06:02;5.93;;;1.37;;
6306;SDS011;3186;54.062;9.962;2023-07-13T13:08:31;1.67;;;1.20;;
6306;SDS011;3186;54.062;9.962;2023-07-13T13:11:01;1.93;;;1.20;;
6306;SDS011;3186;54.062;9.962;2023-07-13T13:13:27;2.37;;;1.20;;
6306;SDS011;3186;54.062;9.962;2023-07-13T13:15:53;6.93;;;1.60;;
6306;SDS011;3186;54.062;9.962;2023-07-13T13:18:20;2.63;;;1.00;;
6306;SDS011;3186;54.062;9.962;2023-07-13T13:20:48;3.70;;;1.70;;
6306;SDS011;3186;54.062;9.962;2023-07-13T13:23:15;9.30;;;1.60;;
6306;SDS011;3186;54.062;9.962;2023-07-13T13:25:43;1.90;;;1.30;;
6306;SDS011;3186;54.062;9.962;2023-07-13T13:28:14;4.30;;;1.60;;
6306;SDS011;3186;54.062;9.962;2023-07-13T13:30:42;4.70;;;1.67;;
6306;SDS011;3186;54.062;9.962;2023-07-13T13:33:11;1.93;;;1.30;;
6306;SDS011;3186;54.062;9.962;2023-07-13T13:35:40;7.77;;;1.73;;
6306;SDS011;3186;54.062;9.962;2023-07-13T13:38:09;3.23;;;1.60;;
6306;SDS011;3186;54.062;9.962;2023-07-13T13:40:39;7.63;;;1.73;;
6306;SDS011;3186;54.062;9.962;2023-07-13T13:43:22;2.27;;;1.23;;
6306;SDS011;3186;54.062;9.962;2023-07-13T13:45:52;2.37;;;1.30;;
6306;SDS011;3186;54.062;9.962;2023-07-13T13:48:26;3.63;;;1.70;;
6306;SDS011;3186;54.062;9.962;2023-07-13T13:50:57;2.97;;;1.30;;
6306;SDS011;3186;54.062;9.962;2023-07-13T13:53:24;2.77;;;1.50;;
6306;SDS011;3186;54.062;9.962;2023-07-13T13:55:50;5.40;;;1.70;;
6306;SDS011;3186;54.062;9.962;2023-07-13T13:58:17;3.57;;;1.10;;
6306;SDS011;3186;54.062;9.962;2023-07-13T14:00:44;3.30;;;1.40;;
6306;SDS011;3186;54.062;9.962;2023-07-13T14:03:20;2.77;;;1.23;;
6306;SDS011;3186;54.062;9.962;2023-07-13T14:05:47;5.50;;;1.77;;
6306;SDS011;3186;54.062;9.962;2023-07-13T14:08:17;1.87;;;1.50;;
6306;SDS011;3186;54.062;9.962;2023-07-13T14:10:45;3.30;;;1.40;;
6306;SDS011;3186;54.062;9.962;2023-07-13T14:15:44;2.97;;;1.40;;
6306;SDS011;3186;54.062;9.962;2023-07-13T14:18:09;1.30;;;1.20;;
6306;SDS011;3186;54.062;9.962;2023-07-13T14:20:36;3.67;;;1.50;;
6306;SDS011;3186;54.062;9.962;2023-07-13T14:23:02;5.73;;;1.73;;
6306;SDS011;3186;54.062;9.962;2023-07-13T14:25:28;4.17;;;1.60;;
6306;SDS011;3186;54.062;9.962;2023-07-13T14:27:58;3.97;;;1.37;;
6306;SDS011;3186;54.062;9.962;2023-07-13T14:30:26;7.23;;;1.30;;
6306;SDS011;3186;54.062;9.962;2023-07-13T14:32:51;5.67;;;1.77;;
6306;SDS011;3186;54.062;9.962;2023-07-13T14:35:18;5.20;;;1.60;;
6306;SDS011;3186;54.062;9.962;2023-07-13T14:37:47;3.23;;;1.13;;
6306;SDS011;3186;54.062;9.962;2023-07-13T14:40:14;4.13;;;1.90;;
6306;SDS011;3186;54.062;9.962;2023-07-13T14:42:41;4.30;;;1.70;;
6306;SDS011;3186;54.062;9.962;2023-07-13T14:45:12;4.37;;;1.80;;
6306;SDS011;3186;54.062;9.962;2023-07-13T14:47:43;2.10;;;1.43;;
6306;SDS011;3186;54.062;9.962;2023-07-13T14:50:14;4.57;;;1.83;;
6306;SDS011;3186;54.062;9.962;2023-07-13T14:52:45;5.10;;;1.33;;
6306;SDS011;3186;54.062;9.962;2023-07-13T14:55:16;4.47;;;1.50;;
6306;SDS011;3186;54.062;9.962;2023-07-13T14:57:43;3.37;;;1.70;;
6306;SDS011;3186;54.062;9.962;2023-07-13T15:00:14;6.10;;;1.70;;
6306;SDS011;3186;54.062;9.962;2023-07-13T15:02:42;3.40;;;1.63;;
6306;SDS011;3186;54.062;9.962;2023-07-13T15:05:24;7.63;;;2.30;;
6306;SDS011;3186;54.062;9.962;2023-07-13T15:07:52;7.57;;;2.00;;
6306;SDS011;3186;54.062;9.962;2023-07-13T15:10:22;8.40;;;1.80;;
6306;SDS011;3186;54.062;9.962;2023-07-13T15:12:57;2.53;;;1.57;;
6306;SDS011;3186;54.062;9.962;2023-07-13T15:15:26;5.67;;;1.67;;
6306;SDS011;3186;54.062;9.962;2023-07-13T15:17:54;4.47;;;1.70;;
6306;SDS011;3186;54.062;9.962;2023-07-13T15:22:49;3.53;;;1.60;;
6306;SDS011;3186;54.062;9.962;2023-07-13T15:25:17;5.93;;;1.60;;
6306;SDS011;3186;54.062;9.962;2023-07-13T15:27:44;4.40;;;1.77;;
6306;SDS011;3186;54.062;9.962;2023-07-13T15:30:10;1.97;;;1.30;;
6306;SDS011;3186;54.062;9.962;2023-07-13T15:32:37;2.33;;;1.47;;
6306;SDS011;3186;54.062;9.962;2023-07-13T15:35:02;3.33;;;1.53;;
6306;SDS011;3186;54.062;9.962;2023-07-13T15:37:28;3.90;;;1.57;;
6306;SDS011;3186;54.062;9.962;2023-07-13T15:39:54;2.27;;;1.40;;
6306;SDS011;3186;54.062;9.962;2023-07-13T15:42:20;2.67;;;1.40;;
6306;SDS011;3186;54.062;9.962;2023-07-13T15:44:47;2.47;;;1.40;;
6306;SDS011;3186;54.062;9.962;2023-07-13T15:47:14;3.27;;;1.40;;
6306;SDS011;3186;54.062;9.962;2023-07-13T15:49:41;4.00;;;1.40;;
6306;SDS011;3186;54.062;9.962;2023-07-13T15:52:20;4.70;;;1.50;;
6306;SDS011;3186;54.062;9.962;2023-07-13T15:54:49;4.53;;;1.60;;
6306;SDS011;3186;54.062;9.962;2023-07-13T15:57:15;3.20;;;1.70;;
6306;SDS011;3186;54.062;9.962;2023-07-13T15:59:42;4.33;;;1.37;;
6306;SDS011;3186;54.062;9.962;2023-07-13T16:02:12;2.37;;;1.33;;
6306;SDS011;3186;54.062;9.962;2023-07-13T16:04:42;2.90;;;1.67;;
6306;SDS011;3186;54.062;9.962;2023-07-13T16:07:11;3.57;;;1.53;;
6306;SDS011;3186;54.062;9.962;2023-07-13T16:09:39;3.00;;;1.50;;
6306;SDS011;3186;54.062;9.962;2023-07-13T16:12:12;5.23;;;1.70;;
6306;SDS011;3186;54.062;9.962;2023-07-13T16:14:39;3.40;;;1.40;;
6306;SDS011;3186;54.062;9.962;2023-07-13T16:17:08;2.60;;;1.40;;
6306;SDS011;3186;54.062;9.962;2023-07-13T16:19:35;8.83;;;1.60;;
6306;SDS011;3186;54.062;9.962;2023-07-13T16:22:02;4.93;;;1.83;;
6306;SDS011;3186;54.062;9.962;2023-07-13T16:24:30;3.70;;;1.60;;
6306;SDS011;3186;54.062;9.962;2023-07-13T16:26:56;4.03;;;1.53;;